Time;durP1;ratioP1;P1;durP2;ratioP2;P2;SDS_P1;SDS_P2;PMS_P1;PMS_P2;Temp;Humidity;BMP_temperature;BMP_pressure;BME280_temperature;BME280_humidity;BME280_pressure;Samples;Min_cycle;Max_cycle;Signal;HPM_P1;HPM_P2
2023/07/30 00:02:01;;;;;;;16.48;15.88;;;;;;;-141.02;97.43;42288.84;5133353;27;20188;-59
2023/07/30 00:04:28;;;;;;;16.60;16.00;;;;;;;-141.02;98.42;42271.56;5133279;27;20219;-64
2023/07/30 00:06:55;;;;;;;16.00;15.40;;;;;;;-141.02;98.46;42214.00;5133364;27;20196;-60
2023/07/30 00:09:22;;;;;;;16.02;15.43;;;;;;;-141.02;98.19;42221.66;5132959;27;20253;-67
2023/07/30 00:11:51;;;;;;;16.23;15.63;;;;;;;-141.02;97.70;42237.03;5132914;27;20218;-63
2023/07/30 00:14:18;;;;;;;16.48;15.88;;;;;;;-141.02;97.71;42210.16;5132973;27;20192;-66
2023/07/30 00:16:45;;;;;;;16.35;15.75;;;;;;;-141.02;97.61;42225.50;5133149;28;20192;-63
2023/07/30 00:19:12;;;;;;;15.75;15.15;;;;;;;-141.02;97.60;42221.66;5133146;28;20251;-63
2023/07/30 00:21:39;;;;;;;16.45;15.85;;;;;;;-141.02;98.49;42221.66;5132821;28;20279;-59
2023/07/30 00:24:06;;;;;;;16.33;15.73;;;;;;;-141.02;97.81;42233.19;5133193;27;20567;-58
2023/07/30 00:26:33;;;;;;;16.40;15.80;;;;;;;-141.02;98.38;42225.50;5132843;28;20188;-58
2023/07/30 00:29:01;;;;;;;16.38;15.77;;;;;;;-141.02;98.41;42206.31;5133050;28;20196;-59
2023/07/30 00:31:28;;;;;;;15.95;15.35;;;;;;;-141.02;98.85;42202.47;5133026;28;20196;-59
2023/07/30 00:33:56;;;;;;;16.38;15.77;;;;;;;-141.02;99.61;42148.75;5132926;28;20188;-59
2023/07/30 00:36:23;;;;;;;16.20;15.60;;;;;;;-141.02;100.00;42071.97;5132693;28;20227;-61
2023/07/30 00:38:50;;;;;;;16.02;15.43;;;;;;;-141.02;100.00;42006.72;5132626;27;20189;-59
2023/07/30 00:41:17;;;;;;;15.73;15.13;;;;;;;-141.02;100.00;41945.28;5134087;27;20323;-60
2023/07/30 00:43:45;;;;;;;15.35;14.85;;;;;;;-141.02;100.00;41895.38;5136797;27;20228;-59
2023/07/30 00:46:13;;;;;;;15.40;14.90;;;;;;;-141.02;100.00;41841.66;5136983;27;20192;-62
2023/07/30 00:48:41;;;;;;;14.70;14.20;;;;;;;-141.02;100.00;41764.88;5136706;27;20279;-59
2023/07/30 00:51:10;;;;;;;14.98;14.48;;;;;;;-141.02;100.00;41691.97;5136964;27;20208;-62
2023/07/30 00:53:37;;;;;;;15.18;14.68;;;;;;;-141.02;100.00;41542.28;5136590;27;20567;-59
2023/07/30 00:56:05;;;;;;;14.98;14.48;;;;;;;-141.02;100.00;41500.06;5136509;27;20715;-60
2023/07/30 00:58:33;;;;;;;14.43;13.93;;;;;;;-141.02;100.00;41361.91;5136549;27;20192;-60
2023/07/30 01:01:01;;;;;;;14.75;14.25;;;;;;;-141.02;100.00;41354.22;5136716;27;20647;-59
2023/07/30 01:03:29;;;;;;;15.10;14.60;;;;;;;-141.02;100.00;41352.31;5136359;27;20286;-59
2023/07/30 01:05:57;;;;;;;13.82;13.43;;;;;;;-141.02;100.00;41304.31;5136729;27;20291;-59
2023/07/30 01:08:24;;;;;;;13.60;13.20;;;;;;;-141.02;100.00;41191.13;5136636;27;20593;-66
2023/07/30 01:10:52;;;;;;;13.80;13.40;;;;;;;-141.02;100.00;41051.03;5136286;27;20287;-61
2023/07/30 01:13:19;;;;;;;13.38;12.98;;;;;;;-141.02;100.00;40970.47;5136523;27;20228;-59
2023/07/30 01:15:47;;;;;;;13.60;13.20;;;;;;;-141.02;100.00;40909.06;5136289;27;20220;-62
2023/07/30 01:18:14;;;;;;;13.70;13.30;;;;;;;-141.02;100.00;40841.91;5136236;27;20228;-61
2023/07/30 01:20:42;;;;;;;13.20;12.80;;;;;;;-141.02;100.00;40767.09;5135928;27;20702;-61
2023/07/30 01:23:11;;;;;;;12.90;12.50;;;;;;;-141.02;100.00;40667.31;5136071;27;20197;-60
2023/07/30 01:25:38;;;;;;;12.63;12.23;;;;;;;-141.02;100.00;40594.41;5136309;27;20227;-64
2023/07/30 01:28:07;;;;;;;12.60;12.20;;;;;;;-141.02;100.00;40536.88;5136033;27;20751;-62
2023/07/30 01:30:39;;;;;;;12.80;12.40;;;;;;;-141.02;100.00;40485.06;5135913;27;20236;-59
2023/07/30 01:33:07;;;;;;;12.75;12.35;;;;;;;-141.02;100.00;40473.56;5136205;27;20189;-61
2023/07/30 01:35:36;;;;;;;11.98;11.57;;;;;;;-141.02;100.00;40421.75;5136096;27;20203;-63
2023/07/30 01:38:05;;;;;;;12.63;12.23;;;;;;;-141.02;100.00;40406.41;5135694;27;20206;-58
2023/07/30 01:40:34;;;;;;;12.35;11.95;;;;;;;-141.02;100.00;40368.03;5135415;27;20773;-65
2023/07/30 01:43:01;;;;;;;12.80;12.40;;;;;;;-141.02;100.00;40339.28;5135918;27;20280;-61
2023/07/30 01:45:28;;;;;;;12.48;12.07;;;;;;;-141.02;100.00;40341.19;5135944;27;20200;-61
2023/07/30 01:47:55;;;;;;;12.10;11.70;;;;;;;-141.02;100.00;40051.53;5135607;27;20231;-59
2023/07/30 01:50:22;;;;;;;12.18;11.77;;;;;;;-141.02;100.00;40310.50;5135848;27;20235;-60
2023/07/30 01:52:48;;;;;;;12.10;11.70;;;;;;;-141.02;100.00;40233.75;5134872;27;20287;-59
2023/07/30 01:55:16;;;;;;;12.05;11.65;;;;;;;-141.02;100.00;40214.59;5135356;27;20196;-65
2023/07/30 01:57:44;;;;;;;12.30;11.90;;;;;;;-141.02;100.00;40164.72;5135384;27;20275;-59
2023/07/30 02:00:12;;;;;;;11.60;11.30;;;;;;;-141.02;100.00;40111.00;5135507;27;20256;-61
2023/07/30 02:02:39;;;;;;;11.30;11.00;;;;;;;-141.02;100.00;40099.50;5135211;27;20199;-61
2023/07/30 02:05:06;;;;;;;11.30;11.00;;;;;;;-141.02;100.00;40043.88;5135289;27;20232;-60
2023/07/30 02:07:33;;;;;;;11.40;11.10;;;;;;;-141.02;100.00;40038.09;5135150;27;20305;-59
2023/07/30 02:10:00;;;;;;;11.32;11.02;;;;;;;-141.02;100.00;39999.75;5135484;27;20200;-60
2023/07/30 02:12:27;;;;;;;11.30;11.00;;;;;;;-141.02;100.00;39963.31;5135386;27;20249;-59
2023/07/30 02:14:56;;;;;;;11.05;10.75;;;;;;;-141.02;100.00;39919.19;5135331;27;20203;-59
2023/07/30 02:17:23;;;;;;;10.70;10.40;;;;;;;-141.02;100.00;39928.78;5135255;27;20324;-63
2023/07/30 02:19:50;;;;;;;11.15;10.85;;;;;;;-141.02;100.00;39909.59;5134859;27;20311;-60
2023/07/30 02:22:17;;;;;;;11.32;11.02;;;;;;;-141.02;100.00;39911.50;5134879;27;20199;-60
2023/07/30 02:24:44;;;;;;;11.40;11.10;;;;;;;-141.02;100.00;39917.25;5135092;27;20281;-63
2023/07/30 02:27:11;;;;;;;11.50;11.20;;;;;;;-141.02;100.00;39932.59;5134802;27;20189;-61
2023/07/30 02:29:38;;;;;;;11.20;10.90;;;;;;;-141.02;100.00;39882.75;5134730;27;20289;-59
2023/07/30 02:32:07;;;;;;;11.00;10.70;;;;;;;-141.02;100.00;39869.31;5135026;27;20553;-59
2023/07/30 02:34:34;;;;;;;11.15;10.85;;;;;;;-141.02;100.00;39850.13;5134629;27;20686;-59
2023/07/30 02:37:01;;;;;;;11.25;10.95;;;;;;;-141.02;100.00;39798.34;5134857;27;20280;-61
2023/07/30 02:39:28;;;;;;;11.13;10.82;;;;;;;-141.02;100.00;39836.72;5134423;27;20200;-60
2023/07/30 02:41:55;;;;;;;11.77;11.48;;;;;;;-141.02;100.00;39857.81;5134818;27;20267;-63
2023/07/30 02:44:22;;;;;;;11.32;11.02;;;;;;;-141.02;100.00;39865.47;5134476;27;20200;-61
2023/07/30 02:46:49;;;;;;;11.05;10.75;;;;;;;-141.02;100.00;39830.94;5134947;27;20222;-62
2023/07/30 02:49:18;;;;;;;10.90;10.60;;;;;;;-141.02;100.00;39811.78;5134696;27;20299;-60
2023/07/30 02:51:48;;;;;;;11.00;10.70;;;;;;;-141.02;100.00;39827.13;5134349;27;20283;-59
2023/07/30 02:54:15;;;;;;;10.90;10.60;;;;;;;-141.02;100.00;39804.09;5134334;27;20184;-61
2023/07/30 02:56:42;;;;;;;10.63;10.32;;;;;;;-141.02;100.00;39807.94;5134232;27;20189;-59
2023/07/30 02:59:09;;;;;;;10.40;10.10;;;;;;;-141.02;100.00;39815.59;5134415;27;20228;-59
2023/07/30 03:01:36;;;;;;;10.38;10.07;;;;;;;-141.02;100.00;39802.19;5134043;27;20315;-62
2023/07/30 03:04:05;;;;;;;10.38;10.07;;;;;;;-141.02;100.00;39834.78;5133464;27;20200;-59
2023/07/30 03:06:33;;;;;;;10.43;10.13;;;;;;;-141.02;100.00;39884.66;5134252;27;20196;-59
2023/07/30 03:09:00;;;;;;;10.40;10.10;;;;;;;-141.02;100.00;39967.13;5134000;27;20292;-59
2023/07/30 03:11:27;;;;;;;10.20;9.90;;;;;;;-141.02;100.00;40064.97;5134205;27;20276;-63
2023/07/30 03:13:54;;;;;;;10.43;10.13;;;;;;;-141.02;100.00;40178.13;5133909;27;20192;-59
2023/07/30 03:16:21;;;;;;;11.20;10.90;;;;;;;-141.02;100.00;40264.47;5134143;27;20275;-60
2023/07/30 03:18:48;;;;;;;11.20;10.90;;;;;;;-141.02;100.00;40318.16;5133895;27;20196;-59
2023/07/30 03:21:15;;;;;;;10.85;10.55;;;;;;;-141.02;100.00;40341.19;5134018;27;20228;-62
2023/07/30 03:23:44;;;;;;;10.77;10.48;;;;;;;-141.02;100.00;40383.38;5133987;27;20295;-61
2023/07/30 03:26:11;;;;;;;10.60;10.30;;;;;;;-141.02;100.00;40394.91;5133680;27;20726;-63
2023/07/30 03:28:38;;;;;;;10.20;9.90;;;;;;;-141.02;100.00;40394.91;5133577;27;20573;-60
2023/07/30 03:34:26;;;;;;;10.05;9.75;;;;;;;-141.02;100.00;40391.06;5133685;27;20557;-64
2023/07/30 03:44:23;;;;;;;9.30;9.10;;;;;;;-141.02;100.00;40379.56;5133558;27;20661;-59
2023/07/30 03:50:30;;;;;;;10.23;9.93;;;;;;;-141.02;100.00;40901.38;5133312;27;20286;-61
2023/07/30 03:53:14;;;;;;;11.15;10.85;;;;;;;-141.02;100.00;41029.94;5133480;27;20224;-60
2023/07/30 03:55:45;;;;;;;12.30;11.90;;;;;;;-141.02;100.00;41168.09;5133248;27;20192;-63
2023/07/30 03:58:12;;;;;;;13.10;12.70;;;;;;;-141.02;100.00;41235.25;5134027;27;20189;-60
2023/07/30 04:00:49;;;;;;;13.02;12.63;;;;;;;-141.02;100.00;41312.00;5133119;27;20742;-65
2023/07/30 04:03:58;;;;;;;14.65;14.15;;;;;;;-141.02;100.00;41400.28;5133334;27;20219;-59
2023/07/30 04:06:47;;;;;;;14.82;14.32;;;;;;;-141.02;100.00;41465.50;5133046;27;20279;-59
2023/07/30 04:09:14;;;;;;;15.52;15.02;;;;;;;-141.02;100.00;41549.94;5132998;27;20192;-59
2023/07/30 04:12:11;;;;;;;16.23;15.63;;;;;;;-141.02;97.10;41620.97;5133300;27;20235;-60
2023/07/30 04:15:15;;;;;;;16.45;15.85;;;;;;;-141.02;94.24;41726.50;5132548;27;20189;-59
2023/07/30 04:18:32;;;;;;;17.45;16.85;;;;;;;-141.02;90.12;41866.59;5132940;27;20188;-61
2023/07/30 04:21:19;;;;;;;18.45;17.75;;;;;;;-141.02;88.46;41952.97;5133218;28;20251;-62
2023/07/30 04:24:12;;;;;;;18.60;17.90;;;;;;;-141.02;88.62;42014.38;5132906;27;20200;-60
2023/07/30 04:27:07;;;;;;;19.85;19.05;;;;;;;-141.02;87.26;42071.97;5132863;27;20196;-61
2023/07/30 04:30:00;;;;;;;18.75;18.05;;;;;;;-141.02;87.12;42087.31;5132781;28;20283;-65
2023/07/30 04:39:48;;;;;;;18.48;17.67;;;;;;;-141.02;81.37;42260.06;5132860;28;20336;-63
2023/07/30 04:45:47;;;;;;;19.90;19.00;;;;;;;-141.02;76.92;42448.16;5132849;28;20178;-66
2023/07/30 04:48:48;;;;;;;20.38;19.52;;;;;;;-141.02;76.60;42453.94;5133056;28;20253;-60
2023/07/30 04:51:15;;;;;;;19.85;19.05;;;;;;;-141.02;74.83;42551.81;5132985;28;20230;-64
2023/07/30 04:53:49;;;;;;;19.75;18.95;;;;;;;-141.02;72.26;42620.94;5132674;28;20278;-63
2023/07/30 04:59:37;;;;;;;20.75;19.85;;;;;;;-141.02;67.54;42818.66;5132780;28;20180;-65
2023/07/30 05:02:07;;;;;;;19.35;18.55;;;;;;;-141.02;66.98;42855.13;5132809;28;20326;-62
2023/07/30 05:04:34;;;;;;;19.60;18.80;;;;;;;-141.02;67.22;42893.53;5132802;27;20200;-64
2023/07/30 05:07:01;;;;;;;19.13;18.33;;;;;;;-141.02;68.57;42885.84;5132508;28;20258;-62
2023/07/30 05:09:28;;;;;;;18.95;18.15;;;;;;;-141.02;69.33;42901.22;5132344;28;20249;-61
2023/07/30 05:11:55;;;;;;;19.75;18.95;;;;;;;-141.02;69.55;42930.00;5132513;28;20231;-65
2023/07/30 05:14:22;;;;;;;20.08;19.17;;;;;;;-141.02;71.36;42926.16;5132717;27;20551;-59
2023/07/30 05:16:49;;;;;;;18.92;18.13;;;;;;;-141.02;72.84;42951.13;5132764;28;20280;-62
2023/07/30 05:19:18;;;;;;;19.02;18.23;;;;;;;-141.02;73.78;42920.41;5132428;28;20658;-63
2023/07/30 05:21:45;;;;;;;18.90;18.10;;;;;;;-141.02;73.46;42935.75;5132239;28;20698;-60
2023/07/30 05:24:12;;;;;;;19.00;18.20;;;;;;;-141.02;72.91;42937.69;5132640;28;20253;-65
2023/07/30 05:26:39;;;;;;;19.35;18.55;;;;;;;-141.02;73.69;42908.88;5133061;27;20618;-64
2023/07/30 05:29:06;;;;;;;19.70;18.90;;;;;;;-141.02;74.50;42945.38;5136318;27;20271;-60
2023/07/30 05:31:33;;;;;;;18.73;17.92;;;;;;;-141.02;75.52;42945.38;5136230;27;20241;-59
2023/07/30 05:34:00;;;;;;;19.20;18.40;;;;;;;-141.02;78.19;42968.41;5136151;27;20613;-65
2023/07/30 05:36:28;;;;;;;18.80;18.00;;;;;;;-141.02;80.63;42924.25;5135799;27;20199;-61
2023/07/30 05:38:55;;;;;;;19.25;18.45;;;;;;;-141.02;79.29;42935.75;5135695;27;20228;-60
2023/07/30 05:41:22;;;;;;;19.00;18.20;;;;;;;-141.02;79.66;42949.19;5135477;27;20266;-63
2023/07/30 05:43:49;;;;;;;18.45;17.75;;;;;;;-141.02;81.37;42912.72;5136050;27;20200;-64
2023/07/30 05:46:16;;;;;;;18.50;17.80;;;;;;;-141.02;82.11;42954.97;5135644;27;20655;-59
2023/07/30 05:48:43;;;;;;;17.77;17.08;;;;;;;-141.02;83.02;42924.25;5135607;27;20285;-59
2023/07/30 05:51:10;;;;;;;17.73;17.02;;;;;;;-141.02;84.08;42924.25;5135558;27;20197;-60
2023/07/30 05:53:39;;;;;;;17.65;16.95;;;;;;;-141.02;84.02;42922.31;5135836;27;20193;-62
2023/07/30 05:56:06;;;;;;;16.98;16.27;;;;;;;-141.02;85.37;42928.09;5135635;27;20188;-62
2023/07/30 05:58:33;;;;;;;17.38;16.67;;;;;;;-141.02;86.33;42931.94;5135660;27;20188;-60
2023/07/30 06:01:00;;;;;;;17.38;16.67;;;;;;;-141.02;86.77;42924.25;5135554;27;20693;-61
2023/07/30 06:03:27;;;;;;;16.85;16.15;;;;;;;-141.02;85.11;42916.56;5135361;27;20228;-64
2023/07/30 06:05:54;;;;;;;17.45;16.75;;;;;;;-141.02;83.91;42916.56;5135614;27;20253;-62
2023/07/30 06:08:21;;;;;;;17.38;16.67;;;;;;;-141.02;82.38;42912.72;5135475;27;20227;-59
2023/07/30 06:10:49;;;;;;;17.90;17.20;;;;;;;-141.02;80.77;42928.09;5135545;27;20227;-65
2023/07/30 06:13:16;;;;;;;17.80;17.10;;;;;;;-141.02;82.01;42926.16;5135439;27;20638;-60
2023/07/30 06:15:43;;;;;;;17.65;16.95;;;;;;;-141.02;81.56;42924.25;5135105;27;20655;-66
2023/07/30 06:18:10;;;;;;;17.75;17.05;;;;;;;-141.02;80.91;42908.88;5135307;27;20189;-60
2023/07/30 06:20:37;;;;;;;18.00;17.30;;;;;;;-141.02;79.48;42935.75;5135202;27;20216;-61
2023/07/30 06:23:04;;;;;;;17.75;17.05;;;;;;;-141.02;79.59;42928.09;5135270;27;20224;-60
2023/07/30 06:25:32;;;;;;;17.92;17.23;;;;;;;-141.02;79.46;42926.16;5134876;27;20349;-61
2023/07/30 06:28:00;;;;;;;17.85;17.15;;;;;;;-141.02;77.93;42945.38;5134844;27;20749;-60
2023/07/30 06:30:28;;;;;;;17.23;16.52;;;;;;;-141.02;77.72;42912.72;5135157;27;20228;-61
2023/07/30 06:32:55;;;;;;;17.35;16.65;;;;;;;-141.02;78.13;42937.69;5134977;27;20231;-66
2023/07/30 06:35:21;;;;;;;18.17;17.48;;;;;;;-141.02;79.29;42928.09;5134749;27;20199;-63
2023/07/30 06:37:48;;;;;;;18.02;17.33;;;;;;;-141.02;78.08;42924.25;5134467;27;20758;-60
2023/07/30 06:40:15;;;;;;;17.85;17.15;;;;;;;-141.02;78.86;42943.44;5134732;27;20275;-61
2023/07/30 06:42:42;;;;;;;17.67;16.98;;;;;;;-141.02;76.62;42962.66;5134846;27;20247;-60
2023/07/30 06:45:11;;;;;;;17.40;16.70;;;;;;;-141.02;75.95;42987.59;5134496;27;20705;-62
2023/07/30 06:47:38;;;;;;;17.33;16.63;;;;;;;-141.02;76.22;42981.84;5134771;27;20279;-61
2023/07/30 06:50:08;;;;;;;17.70;17.00;;;;;;;-141.02;76.61;42966.47;5134343;27;20244;-66
2023/07/30 06:52:35;;;;;;;18.38;17.58;;;;;;;-141.02;77.72;42987.59;5134409;27;20239;-61
2023/07/30 06:55:02;;;;;;;17.73;17.02;;;;;;;-141.02;77.10;42989.53;5134544;27;20228;-61
2023/07/30 06:57:30;;;;;;;17.63;16.92;;;;;;;-141.02;75.61;42981.84;5134221;27;20235;-61
2023/07/30 06:59:57;;;;;;;17.83;17.13;;;;;;;-141.02;76.16;43047.13;5134174;27;20574;-61
2023/07/30 07:02:26;;;;;;;18.17;17.42;;;;;;;-141.02;74.86;43027.91;5134370;27;20337;-63
2023/07/30 07:04:54;;;;;;;18.83;18.02;;;;;;;-141.02;74.74;43033.69;5134406;27;20714;-61
2023/07/30 07:07:22;;;;;;;18.10;17.40;;;;;;;-141.02;73.75;43047.13;5134024;27;20638;-63
2023/07/30 07:09:49;;;;;;;18.00;17.30;;;;;;;-141.02;73.68;43060.56;5134038;27;20228;-65
2023/07/30 07:12:16;;;;;;;18.48;17.67;;;;;;;-141.02;72.40;43062.47;5133926;27;20228;-67
2023/07/30 07:14:43;;;;;;;18.50;17.70;;;;;;;-141.02;72.38;43093.19;5133927;27;20284;-67
2023/07/30 07:17:10;;;;;;;17.77;17.08;;;;;;;-141.02;71.25;43066.31;5133914;27;20576;-61
2023/07/30 07:19:38;;;;;;;19.63;18.75;;;;;;;-141.02;71.09;43123.91;5133785;27;20678;-66
2023/07/30 07:22:05;;;;;;;17.95;17.15;;;;;;;-141.02;71.12;43139.28;5133695;27;20310;-65
2023/07/30 07:24:33;;;;;;;18.45;17.65;;;;;;;-141.02;70.65;43154.63;5133925;27;20193;-64
2023/07/30 07:27:00;;;;;;;18.40;17.60;;;;;;;-141.02;69.90;43173.81;5134189;27;20206;-67
2023/07/30 07:29:27;;;;;;;18.05;17.25;;;;;;;-141.02;69.48;43189.19;5133583;27;20195;-64
2023/07/30 07:31:54;;;;;;;18.25;17.45;;;;;;;-141.02;68.36;43164.22;5133916;27;20633;-67
2023/07/30 07:34:21;;;;;;;17.60;16.80;;;;;;;-141.02;67.99;43166.16;5133701;27;20593;-64
2023/07/30 07:36:50;;;;;;;17.90;17.10;;;;;;;-141.02;67.43;43212.22;5133743;27;20192;-66
2023/07/30 07:39:20;;;;;;;18.60;17.80;;;;;;;-141.02;64.15;43204.56;5133440;27;20620;-60
2023/07/30 07:41:47;;;;;;;19.05;18.23;;;;;;;-141.02;64.10;43235.28;5133065;27;20267;-65
2023/07/30 07:44:14;;;;;;;19.10;18.20;;;;;;;-141.02;64.32;43277.50;5133360;27;20228;-66
2023/07/30 07:46:42;;;;;;;18.75;17.85;;;;;;;-141.02;65.75;43319.75;5133992;27;20195;-65
2023/07/30 07:49:09;;;;;;;18.63;17.73;;;;;;;-141.02;64.80;43377.34;5133056;27;20196;-65
2023/07/30 07:51:36;;;;;;;19.27;18.38;;;;;;;-141.02;63.26;43319.75;5133018;27;20629;-67
2023/07/30 07:54:04;;;;;;;19.10;18.20;;;;;;;-141.02;62.78;43335.09;5133466;27;20224;-68
2023/07/30 07:56:32;;;;;;;18.30;17.50;;;;;;;-141.02;61.55;43346.63;5133538;27;20228;-66
2023/07/30 07:58:59;;;;;;;19.08;18.17;;;;;;;-141.02;61.67;43373.50;5133488;27;20188;-66
2023/07/30 08:01:26;;;;;;;18.05;17.25;;;;;;;-141.02;61.11;43396.56;5133080;27;20255;-67
2023/07/30 08:03:53;;;;;;;20.92;19.98;;;;;;;-141.02;61.22;43411.91;5133059;27;20287;-65
2023/07/30 08:06:20;;;;;;;23.10;22.00;;;;;;;-141.02;60.88;43427.28;5133270;27;20199;-61
2023/07/30 08:08:47;;;;;;;20.65;19.65;;;;;;;-141.02;60.88;43434.94;5133003;27;20705;-67
2023/07/30 08:11:15;;;;;;;20.50;19.50;;;;;;;-141.02;61.35;43523.28;5133257;27;20701;-68
2023/07/30 08:13:42;;;;;;;24.05;22.90;;;;;;;-141.02;60.24;43557.84;5133620;27;20738;-67
2023/07/30 08:16:09;;;;;;;19.80;18.90;;;;;;;-141.02;59.57;43561.69;5133260;27;20214;-68
2023/07/30 08:18:36;;;;;;;19.20;18.20;;;;;;;-141.02;57.20;43544.41;5133205;28;20271;-68
2023/07/30 08:21:03;;;;;;;18.77;17.88;;;;;;;-141.02;59.54;43607.75;5132874;28;20285;-68
2023/07/30 08:23:30;;;;;;;19.08;18.08;;;;;;;-141.02;58.68;43644.25;5132837;28;20282;-67
2023/07/30 08:25:57;;;;;;;18.52;17.63;;;;;;;-141.02;58.27;43669.22;5132904;28;20684;-67
2023/07/30 08:28:26;;;;;;;19.20;18.20;;;;;;;-141.02;56.60;43567.44;5132844;28;20635;-69
2023/07/30 08:30:53;;;;;;;18.65;17.75;;;;;;;-141.02;55.85;43540.56;5133108;28;20204;-67
2023/07/30 08:33:20;;;;;;;19.00;18.05;;;;;;;-141.02;56.19;43623.13;5133092;28;20196;-66
2023/07/30 08:35:47;;;;;;;19.20;18.20;;;;;;;-141.02;56.59;43623.13;5133023;28;20650;-67
2023/07/30 08:38:14;;;;;;;18.95;17.95;;;;;;;-141.02;57.31;43638.50;5133081;27;20245;-67
2023/07/30 08:40:41;;;;;;;19.08;18.08;;;;;;;-141.02;56.82;43661.53;5132661;28;20331;-67
2023/07/30 08:43:08;;;;;;;21.40;20.30;;;;;;;-141.02;56.15;43613.53;5132945;28;20230;-68
2023/07/30 08:45:37;;;;;;;22.70;21.50;;;;;;;-141.02;56.44;43638.50;5132881;28;20275;-68
2023/07/30 08:48:04;;;;;;;20.63;19.58;;;;;;;-141.02;55.86;43625.03;5133074;28;20283;-67
2023/07/30 08:50:32;;;;;;;19.33;18.33;;;;;;;-141.02;55.74;43640.41;5132662;28;20245;-69
2023/07/30 08:53:02;;;;;;;19.35;18.35;;;;;;;-141.02;55.82;43676.91;5132866;28;20271;-67
2023/07/30 08:55:29;;;;;;;18.63;17.70;;;;;;;-141.02;55.81;43671.13;5132605;28;20231;-66
2023/07/30 08:57:58;;;;;;;18.10;17.20;;;;;;;-141.02;55.41;43680.72;5132413;28;20658;-68
2023/07/30 09:00:26;;;;;;;18.55;17.65;;;;;;;-141.02;54.69;43667.28;5132567;28;20232;-66
2023/07/30 09:02:59;;;;;;;18.20;17.30;;;;;;;-141.02;54.89;43674.97;5135228;27;20263;-64
2023/07/30 09:05:28;;;;;;;18.15;17.25;;;;;;;-141.02;54.24;43696.09;5136644;27;20193;-68
2023/07/30 09:07:56;;;;;;;18.65;17.75;;;;;;;-141.02;54.55;43746.03;5136723;27;20211;-67
2023/07/30 09:10:24;;;;;;;18.45;17.45;;;;;;;-141.02;54.15;43722.97;5136683;27;20188;-61
2023/07/30 09:12:54;;;;;;;18.08;17.08;;;;;;;-141.02;54.36;43757.53;5136633;27;20224;-67
2023/07/30 09:15:31;;;;;;;17.95;17.05;;;;;;;-141.02;55.16;43761.38;5136744;27;20198;-67
2023/07/30 09:17:59;;;;;;;17.75;16.85;;;;;;;-141.02;54.97;43778.66;5136411;27;20550;-67
2023/07/30 09:20:27;;;;;;;17.35;16.55;;;;;;;-141.02;54.24;43757.53;5136444;27;20224;-67
2023/07/30 09:22:57;;;;;;;17.92;17.02;;;;;;;-141.02;53.68;43778.66;5136566;27;20596;-69
2023/07/30 09:25:24;;;;;;;17.60;16.80;;;;;;;-141.02;54.41;43803.63;5136347;27;20606;-66
2023/07/30 09:27:55;;;;;;;17.48;16.67;;;;;;;-141.02;52.82;43863.16;5136012;27;20203;-66
2023/07/30 09:30:27;;;;;;;17.80;16.92;;;;;;;-141.02;52.49;43895.81;5135980;27;20252;-67
2023/07/30 09:32:55;;;;;;;17.80;16.90;;;;;;;-141.02;51.91;43926.53;5136435;27;20291;-67
2023/07/30 09:35:25;;;;;;;17.98;17.08;;;;;;;-141.02;53.02;43857.41;5135947;27;20224;-67
2023/07/30 09:37:59;;;;;;;18.05;17.15;;;;;;;-141.02;52.12;44011.03;5135771;27;20550;-67
2023/07/30 09:40:32;;;;;;;18.20;17.20;;;;;;;-141.02;50.73;44049.44;5135667;27;20246;-68
2023/07/30 09:42:59;;;;;;;18.52;17.63;;;;;;;-141.02;51.31;44158.91;5135645;27;20789;-67
2023/07/30 09:45:27;;;;;;;17.83;16.92;;;;;;;-141.02;50.65;44009.09;5135606;27;20761;-68
2023/07/30 09:47:56;;;;;;;17.58;16.67;;;;;;;-141.02;51.39;44037.91;5135542;27;20249;-65
2023/07/30 09:50:24;;;;;;;17.92;17.02;;;;;;;-141.02;51.14;44068.63;5135568;27;20200;-67
2023/07/30 09:52:51;;;;;;;18.40;17.48;;;;;;;-141.02;50.64;44057.13;5135800;27;20245;-67
2023/07/30 09:55:19;;;;;;;17.73;16.83;;;;;;;-141.02;51.10;44078.25;5135461;27;20553;-65
2023/07/30 09:57:46;;;;;;;17.90;17.00;;;;;;;-141.02;50.97;44059.03;5135785;27;20339;-67
2023/07/30 10:00:14;;;;;;;17.73;16.83;;;;;;;-141.02;51.64;44005.25;5135373;27;20745;-62
2023/07/30 10:02:46;;;;;;;17.95;17.05;;;;;;;-141.02;51.77;44103.22;5135766;27;20220;-66
2023/07/30 10:05:16;;;;;;;17.85;16.95;;;;;;;-141.02;51.17;44105.13;5135614;27;20200;-64
2023/07/30 10:07:50;;;;;;;17.73;16.83;;;;;;;-141.02;50.73;44130.09;5135309;27;20224;-68
2023/07/30 10:10:19;;;;;;;17.77;16.88;;;;;;;-141.02;50.40;44172.34;5135481;27;20180;-67
2023/07/30 10:12:48;;;;;;;18.08;17.15;;;;;;;-141.02;49.42;44283.75;5134717;27;20196;-67
2023/07/30 10:15:19;;;;;;;17.90;17.00;;;;;;;-141.02;50.00;44329.84;5135641;27;20196;-62
2023/07/30 10:17:46;;;;;;;17.85;16.95;;;;;;;-141.02;48.73;44276.06;5135148;27;20229;-62
2023/07/30 10:20:21;;;;;;;18.27;17.38;;;;;;;-141.02;49.92;44241.47;5135560;27;20245;-66
2023/07/30 10:22:52;;;;;;;17.70;16.80;;;;;;;-141.02;49.22;44272.22;5135229;27;20224;-63
2023/07/30 10:25:22;;;;;;;18.08;17.17;;;;;;;-141.02;48.25;44283.75;5134947;27;20185;-68
2023/07/30 10:27:51;;;;;;;17.60;16.80;;;;;;;-141.02;49.14;44297.19;5135219;27;20238;-65
2023/07/30 10:30:20;;;;;;;17.83;16.92;;;;;;;-141.02;49.13;44414.34;5135159;27;20627;-67
2023/07/30 10:33:01;;;;;;;18.20;17.25;;;;;;;-141.02;48.44;44324.06;5135019;27;20228;-69
2023/07/30 10:35:41;;;;;;;20.60;19.60;;;;;;;-141.02;49.51;44356.72;5135010;27;20203;-66
2023/07/30 10:38:17;;;;;;;20.05;19.05;;;;;;;-141.02;48.44;44414.34;5135039;27;20631;-67
2023/07/30 10:41:03;;;;;;;18.17;17.27;;;;;;;-141.02;48.70;44445.06;5134381;27;20270;-69
2023/07/30 10:43:31;;;;;;;17.83;16.92;;;;;;;-141.02;48.34;44379.78;5134830;27;20211;-69
2023/07/30 10:45:58;;;;;;;17.80;16.90;;;;;;;-141.02;48.95;44387.44;5134399;27;20283;-67
2023/07/30 10:48:35;;;;;;;18.38;17.42;;;;;;;-141.02;49.40;44416.25;5134572;27;20227;-63
2023/07/30 10:51:05;;;;;;;17.95;17.05;;;;;;;-141.02;48.76;44341.34;5134664;27;20257;-67
2023/07/30 10:53:35;;;;;;;18.10;17.10;;;;;;;-141.02;50.07;44299.09;5134385;27;20275;-64
2023/07/30 10:56:04;;;;;;;18.20;17.30;;;;;;;-141.02;49.77;44354.81;5134374;27;20204;-67
2023/07/30 10:58:31;;;;;;;17.83;16.92;;;;;;;-141.02;48.04;44414.34;5134549;27;20247;-69
2023/07/30 11:00:59;;;;;;;17.90;17.00;;;;;;;-141.02;48.76;44372.09;5134496;27;20224;-68
2023/07/30 11:03:27;;;;;;;17.92;17.02;;;;;;;-141.02;49.66;44364.41;5122581;27;20221;-68
2023/07/30 11:05:55;;;;;;;18.52;17.52;;;;;;;-141.02;49.16;44356.72;5113634;28;20216;-59
2023/07/30 11:08:34;;;;;;;17.83;16.92;;;;;;;-141.02;48.86;44437.38;5113788;28;20220;-60
2023/07/30 11:11:02;;;;;;;17.83;16.92;;;;;;;-141.02;48.20;44558.38;5113797;28;20189;-60
2023/07/30 11:13:29;;;;;;;17.88;16.98;;;;;;;-141.02;47.99;44519.97;5114053;28;20233;-62
2023/07/30 11:15:56;;;;;;;18.02;17.13;;;;;;;-141.02;47.69;44598.72;5113925;28;20200;-63
2023/07/30 11:18:23;;;;;;;18.25;17.25;;;;;;;-141.02;49.02;44510.38;5113983;28;20670;-62
2023/07/30 11:20:51;;;;;;;17.67;16.77;;;;;;;-141.02;47.84;44558.38;5113453;28;20200;-68
2023/07/30 11:23:19;;;;;;;18.50;17.50;;;;;;;-141.02;47.61;44660.19;5113157;28;20224;-66
2023/07/30 11:25:49;;;;;;;18.08;17.17;;;;;;;-141.02;47.71;44521.91;5112770;28;20279;-63
2023/07/30 11:28:29;;;;;;;18.35;17.35;;;;;;;-141.02;47.80;44552.63;5113102;28;20551;-64
2023/07/30 11:30:59;;;;;;;18.17;17.17;;;;;;;-141.02;47.91;44477.72;5113066;28;20187;-60
2023/07/30 11:33:26;;;;;;;18.10;17.20;;;;;;;-141.02;47.83;44473.88;5114057;28;20196;-65
2023/07/30 11:35:54;;;;;;;18.23;17.23;;;;;;;-141.02;48.96;44448.91;5113003;28;20231;-69
2023/07/30 11:38:21;;;;;;;18.20;17.20;;;;;;;-141.02;49.25;44422.03;5113302;28;20197;-65